EHC04 EHLE-ZZZZ

Flight info

Callsign EHC04
Flight time N/A
Altitude 1000
Route BRAVO DCT NIJMEGEN DCT
Aircraft EC35/L-SBDGRYZ/LB1

Departure

Time 2026-04-11 19:07
Airport Lelystad Airport (EHLE)

Arrival

Time N/A
Airport ZZZZ
Time Latitude Longitude Altitude Speed Heading
2026-04-11 18:52 52.45308 5.51913 -7 ft 0 kts 52°
2026-04-11 19:05 52.45323 5.51901 8 ft 8 kts 310°
2026-04-11 19:05 52.45298 5.51807 4 ft 17 kts 227°
2026-04-11 19:06 52.45233 5.51686 1 ft 11 kts 238°
2026-04-11 19:06 52.45252 5.51604 0 ft 6 kts 309°
2026-04-11 19:06 52.45316 5.51498 6 ft 17 kts 269°
2026-04-11 19:06 52.45164 5.51180 85 ft 64 kts 226°
2026-04-11 19:07 52.44849 5.50565 415 ft 75 kts 227°
2026-04-11 19:07 52.44472 5.49911 777 ft 82 kts 223°
2026-04-11 19:07 52.44076 5.49191 1114 ft 89 kts 225°
2026-04-11 19:07 52.43446 5.48831 1195 ft 117 kts 171°
2026-04-11 19:08 52.42974 5.49967 1054 ft 141 kts 77°
2026-04-11 19:08 52.43423 5.51391 965 ft 143 kts 46°
2026-04-11 19:08 52.43674 5.52964 818 ft 149 kts 102°
2026-04-11 19:08 52.43064 5.54152 983 ft 131 kts 133°
2026-04-11 19:09 52.42423 5.55227 1041 ft 130 kts 130°
2026-04-11 19:09 52.41796 5.56303 1038 ft 131 kts 130°
2026-04-11 19:09 52.41152 5.57371 1035 ft 131 kts 130°
2026-04-11 19:09 52.40509 5.58432 1028 ft 131 kts 132°
2026-04-11 19:10 52.39871 5.59500 1035 ft 131 kts 132°
2026-04-11 19:10 52.39212 5.60528 1018 ft 132 kts 140°
2026-04-11 19:10 52.38378 5.61109 1020 ft 133 kts 167°
2026-04-11 19:10 52.37466 5.61325 1036 ft 131 kts 172°
2026-04-11 19:11 52.36572 5.61539 1030 ft 128 kts 172°
2026-04-11 19:11 52.35702 5.61750 1030 ft 126 kts 172°
2026-04-11 19:11 52.34842 5.61963 1031 ft 124 kts 171°
2026-04-11 19:11 52.34000 5.62174 1026 ft 122 kts 171°
2026-04-11 19:12 52.33167 5.62381 1019 ft 121 kts 170°
2026-04-11 19:12 52.32338 5.62586 1025 ft 120 kts 170°
2026-04-11 19:12 52.31510 5.62791 1025 ft 120 kts 170°
2026-04-11 19:12 52.30682 5.62997 1017 ft 120 kts 171°
2026-04-11 19:13 52.29857 5.63202 1022 ft 122 kts 169°
2026-04-11 19:13 52.29011 5.63417 1021 ft 123 kts 170°
2026-04-11 19:13 52.28165 5.63633 1022 ft 123 kts 172°
2026-04-11 19:13 52.27319 5.63848 1023 ft 123 kts 171°
2026-04-11 19:14 52.26474 5.64066 1019 ft 123 kts 170°
2026-04-11 19:14 52.25627 5.64282 1007 ft 124 kts 172°
2026-04-11 19:14 52.24768 5.64495 1015 ft 126 kts 172°
2026-04-11 19:14 52.23898 5.64709 1015 ft 128 kts 170°
2026-04-11 19:15 52.23014 5.64929 1016 ft 129 kts 171°
2026-04-11 19:15 52.22120 5.65150 1020 ft 131 kts 171°
2026-04-11 19:15 52.21213 5.65380 1022 ft 132 kts 171°
2026-04-11 19:15 52.20313 5.65608 1017 ft 131 kts 171°
2026-04-11 19:16 52.19416 5.65833 1021 ft 131 kts 171°
2026-04-11 19:16 52.18512 5.66059 1018 ft 131 kts 172°
2026-04-11 19:16 52.17610 5.66284 1024 ft 132 kts 172°
2026-04-11 19:16 52.16698 5.66514 1027 ft 133 kts 172°
2026-04-11 19:17 52.15777 5.66748 1024 ft 134 kts 172°
2026-04-11 19:17 52.14852 5.66881 1021 ft 134 kts 177°
2026-04-11 19:17 52.13935 5.66913 1022 ft 133 kts 178°
2026-04-11 19:17 52.13015 5.66932 1027 ft 131 kts 179°
2026-04-11 19:18 52.12108 5.66953 1024 ft 131 kts 179°
2026-04-11 19:18 52.11203 5.67008 1028 ft 130 kts 179°
2026-04-11 19:18 52.10306 5.67110 1028 ft 129 kts 179°
2026-04-11 19:18 52.09404 5.67220 1022 ft 130 kts 179°
2026-04-11 19:19 52.08501 5.67331 1027 ft 130 kts 178°
2026-04-11 19:19 52.07599 5.67419 1025 ft 130 kts 178°
2026-04-11 19:19 52.06693 5.67485 1026 ft 130 kts 179°
2026-04-11 19:19 52.05789 5.67567 1028 ft 129 kts 178°
2026-04-11 19:20 52.05195 5.67616 1026 ft 129 kts 178°
2026-04-11 19:20 52.04300 5.67698 1026 ft 128 kts 179°
2026-04-11 19:20 52.03414 5.67787 1025 ft 127 kts 178°
2026-04-11 19:20 52.02532 5.67858 1027 ft 127 kts 179°
2026-04-11 19:21 52.01659 5.67997 1024 ft 125 kts 176°
2026-04-11 19:21 52.00803 5.68230 1025 ft 124 kts 175°
2026-04-11 19:21 51.99950 5.68472 1025 ft 124 kts 176°
2026-04-11 19:21 51.99101 5.68711 1027 ft 124 kts 176°
2026-04-11 19:22 51.98253 5.68948 1028 ft 122 kts 178°
2026-04-11 19:22 51.97440 5.69175 1027 ft 119 kts 181°
2026-04-11 19:22 51.96632 5.69405 1024 ft 117 kts 181°
2026-04-11 19:22 51.95837 5.69627 1029 ft 116 kts 180°
2026-04-11 19:23 51.95045 5.69846 1027 ft 115 kts 179°
2026-04-11 19:23 51.94249 5.70063 1025 ft 117 kts 179°
2026-04-11 19:23 51.93442 5.70282 1025 ft 118 kts 178°
2026-04-11 19:23 51.92632 5.70503 1027 ft 118 kts 178°
2026-04-11 19:24 51.91818 5.70726 1025 ft 119 kts 178°
2026-04-11 19:24 51.91007 5.70950 1029 ft 118 kts 179°
2026-04-11 19:24 51.90198 5.71172 1025 ft 117 kts 179°
2026-04-11 19:24 51.89401 5.71390 1027 ft 116 kts 179°
2026-04-11 19:25 51.88603 5.71608 1027 ft 116 kts 179°
2026-04-11 19:25 51.87807 5.71824 1029 ft 116 kts 179°
2026-04-11 19:25 51.87009 5.72041 1029 ft 117 kts 179°
2026-04-11 19:25 51.86205 5.72259 1044 ft 117 kts 179°
2026-04-11 19:26 51.85399 5.72479 1042 ft 117 kts 179°
2026-04-11 19:26 51.84597 5.72697 1046 ft 117 kts 179°
2026-04-11 19:26 51.83802 5.72914 1043 ft 117 kts 179°
2026-04-11 19:26 51.82996 5.73133 1043 ft 117 kts 179°
2026-04-11 19:27 51.82190 5.73350 1049 ft 118 kts 179°
2026-04-11 19:27 51.81381 5.73570 1050 ft 118 kts 179°
2026-04-11 19:27 51.80573 5.73791 1052 ft 117 kts 179°
2026-04-11 19:27 51.79768 5.74011 1051 ft 117 kts 179°
2026-04-11 19:28 51.78968 5.74231 1051 ft 116 kts 179°
2026-04-11 19:28 51.78171 5.74448 1049 ft 116 kts 178°
2026-04-11 19:28 51.77373 5.74664 1050 ft 116 kts 177°
2026-04-11 19:28 51.76578 5.74878 1053 ft 116 kts 177°
2026-04-11 19:29 51.75782 5.75093 1053 ft 115 kts 177°
2026-04-11 19:29 51.74992 5.75307 1056 ft 115 kts 177°
2026-04-11 19:29 51.74204 5.75521 1053 ft 115 kts 178°
2026-04-11 19:29 51.73417 5.75730 1049 ft 115 kts 180°
2026-04-11 19:30 51.72620 5.75939 1049 ft 117 kts 179°
2026-04-11 19:30 51.71810 5.76152 1053 ft 119 kts 179°
2026-04-11 19:30 51.70991 5.76369 1059 ft 120 kts 179°
2026-04-11 19:30 51.70170 5.76591 1058 ft 119 kts 178°
2026-04-11 19:31 51.69357 5.76814 1052 ft 118 kts 177°
2026-04-11 19:31 51.68550 5.77032 1050 ft 117 kts 178°
2026-04-11 19:31 51.67743 5.77250 1054 ft 118 kts 178°
2026-04-11 19:31 51.66948 5.77463 1048 ft 118 kts 178°
2026-04-11 19:32 51.66136 5.77679 1054 ft 119 kts 178°
2026-04-11 19:32 51.65316 5.77900 1059 ft 119 kts 179°
2026-04-11 19:32 51.64503 5.78121 1055 ft 119 kts 178°
2026-04-11 19:32 51.63686 5.78342 1055 ft 119 kts 178°
2026-04-11 19:33 51.62872 5.78560 1056 ft 119 kts 178°
2026-04-11 19:33 51.62056 5.78780 1054 ft 119 kts 178°
2026-04-11 19:33 51.61239 5.79000 1054 ft 119 kts 178°
2026-04-11 19:33 51.60421 5.79220 1057 ft 119 kts 178°
2026-04-11 19:34 51.59606 5.79439 1059 ft 119 kts 178°
2026-04-11 19:34 51.58791 5.79659 1053 ft 118 kts 178°
2026-04-11 19:34 51.57980 5.79878 1052 ft 118 kts 178°
2026-04-11 19:34 51.57170 5.80096 1052 ft 118 kts 178°
2026-04-11 19:35 51.56359 5.80314 1052 ft 119 kts 178°
2026-04-11 19:35 51.55536 5.80532 1051 ft 121 kts 178°
2026-04-11 19:35 51.54693 5.80754 1053 ft 124 kts 178°
2026-04-11 19:35 51.53822 5.80983 1048 ft 128 kts 178°
2026-04-11 19:36 51.52930 5.81218 1046 ft 131 kts 178°
2026-04-11 19:36 51.52023 5.81458 1046 ft 133 kts 177°
2026-04-11 19:36 51.51109 5.81700 1047 ft 133 kts 177°
2026-04-11 19:37 51.49277 5.82188 1048 ft 133 kts 177°
2026-04-11 19:37 51.48363 5.82433 1048 ft 133 kts 177°
2026-04-11 19:37 51.47461 5.82675 1048 ft 133 kts 178°
2026-04-11 19:37 51.46546 5.82920 1047 ft 133 kts 177°
2026-04-11 19:38 51.45634 5.83163 1043 ft 133 kts 177°
2026-04-11 19:38 51.44724 5.83405 1051 ft 133 kts 176°
2026-04-11 19:38 51.43812 5.83650 1051 ft 133 kts 177°
2026-04-11 19:38 51.42901 5.83895 1050 ft 132 kts 176°
2026-04-11 19:39 51.41994 5.84137 1047 ft 132 kts 176°
2026-04-11 19:39 51.41084 5.84379 1047 ft 133 kts 177°
2026-04-11 19:39 51.40174 5.84621 1044 ft 132 kts 176°
2026-04-11 19:39 51.39264 5.84863 1033 ft 132 kts 176°
2026-04-11 19:40 51.38360 5.85105 1016 ft 132 kts 177°
2026-04-11 19:40 51.37456 5.85348 1007 ft 132 kts 175°
2026-04-11 19:40 51.36552 5.85592 1005 ft 131 kts 176°
2026-04-11 19:40 51.35653 5.85835 1004 ft 131 kts 177°
2026-04-11 19:41 51.34755 5.86073 1001 ft 131 kts 177°
2026-04-11 19:41 51.33860 5.86309 1000 ft 131 kts 176°
2026-04-11 19:41 51.32960 5.86545 1001 ft 131 kts 177°
2026-04-11 19:41 51.32056 5.86782 998 ft 132 kts 177°
2026-04-11 19:42 51.31157 5.87018 996 ft 133 kts 176°
2026-04-11 19:42 51.30251 5.87258 1003 ft 130 kts 176°
2026-04-11 19:42 51.29370 5.87497 1003 ft 126 kts 176°
2026-04-11 19:42 51.28519 5.87730 1004 ft 122 kts 177°
2026-04-11 19:43 51.27711 5.87953 1003 ft 115 kts 179°
2026-04-11 19:43 51.26937 5.88162 1005 ft 111 kts 180°
2026-04-11 19:43 51.26210 5.88359 963 ft 100 kts 182°
2026-04-11 19:43 51.25558 5.88341 923 ft 91 kts 198°
2026-04-11 19:44 51.24912 5.88257 938 ft 98 kts 183°
2026-04-11 19:44 51.24313 5.88858 899 ft 113 kts 125°
2026-04-11 19:44 51.24092 5.90064 774 ft 114 kts 98°
2026-04-11 19:44 51.24080 5.91270 692 ft 104 kts 73°
2026-04-11 19:45 51.24558 5.91743 630 ft 76 kts 330°
2026-04-11 19:45 51.24631 5.91118 530 ft 63 kts 228°
2026-04-11 19:45 51.24377 5.90751 340 ft 32 kts 229°
2026-04-11 19:45 51.24313 5.90620 234 ft 8 kts 234°
2026-04-11 19:46 51.24296 5.90574 144 ft 4 kts 241°
2026-04-11 19:46 51.24289 5.90549 114 ft 1 kts 264°
2026-04-11 19:46 51.24268 5.90543 113 ft 4 kts 211°
2026-04-11 19:46 51.24255 5.90543 105 ft 2 kts 265°
2026-04-11 19:47 51.24255 5.90542 99 ft 0 kts 272°
2026-04-11 20:01 51.24268 5.90546 124 ft 6 kts 276°
2026-04-11 20:02 51.24287 5.90544 123 ft 2 kts 276°
2026-04-11 20:02 51.24290 5.90549 126 ft 1 kts 275°